»·PEaware :: UAL1399 KEGE-KTEX

UAL1399 :: KEGE-KTEX

FLIGHT INFORMATION

Flight Status: Arrived
Operator:
United Airlines
More flights by this operator :: More flights under this callsign
Pilot: David C. (16084)
Aircraft: DEHAVILLAND DASH 8 400
(DH8D)
More flights by this aircraft type
Origin: KEGE Eagle Co Regl
United States
Destination: KTEX Telluride Regl
United States
More flights between these airports :: More routes between these airports
Route: BEVVR1 SPRKT JNC ETL
File this flight plan on PilotEdge
Remarks:
Altitude:
(Current/Filed)
18,000ft
Speed:
(Current/Filed)
323kts
Departed: 26-Jul-23 11:19 AM
Arrived: 26-Jul-23 12:05 PM
Distance/Time
Traveled:
111nm/0:46
Distance/Time
To Go:
Arrived

Flight Plot

Page will automatically refresh every two minutes.

Flight plan parsing failed; only flown route is shown


Map Options




Map Legend


Flown Route
Filed Route
Departure Airport
Arrival Airport
Navaid (VOR, NDB)
Fix

Horizontal Profiles

Position Reports

Time Latitude Longitude Heading Altitude Ground
Speed
26-Jul-23 10:43 39.640980 -106.912162 172 6552ft 0kts
26-Jul-23 10:45 39.640980 -106.912162 172 6552ft 0kts
26-Jul-23 10:46 39.640980 -106.912162 172 6552ft 0kts
26-Jul-23 10:47 39.640980 -106.912162 172 6552ft 0kts
26-Jul-23 10:48 39.640980 -106.912162 172 6552ft 0kts
26-Jul-23 10:49 39.640980 -106.912162 172 6552ft 0kts
26-Jul-23 10:50 39.640980 -106.912162 172 6552ft 0kts
26-Jul-23 10:51 39.640980 -106.912162 172 6552ft 0kts
26-Jul-23 10:52 39.640980 -106.912162 172 6552ft 0kts
26-Jul-23 10:53 39.640980 -106.912162 172 6552ft 0kts
26-Jul-23 10:54 39.640980 -106.912162 172 6552ft 0kts
26-Jul-23 10:55 39.640980 -106.912162 172 6552ft 0kts
26-Jul-23 10:56 39.640980 -106.912162 172 6552ft 0kts
26-Jul-23 10:57 39.640980 -106.912162 172 6552ft 0kts
26-Jul-23 10:58 39.640980 -106.912162 172 6552ft 0kts
26-Jul-23 10:59 39.640980 -106.912162 172 6552ft 0kts
26-Jul-23 11:00 39.640980 -106.912162 172 6552ft 0kts
26-Jul-23 11:01 39.640980 -106.912162 172 6552ft 0kts
26-Jul-23 11:02 39.640980 -106.912162 172 6552ft 0kts
26-Jul-23 11:03 39.640980 -106.912162 172 6552ft 0kts
26-Jul-23 11:04 39.640980 -106.912162 172 6552ft 0kts
26-Jul-23 11:05 39.640980 -106.912162 172 6552ft 0kts
26-Jul-23 11:06 39.640980 -106.912162 172 6552ft 0kts
26-Jul-23 11:07 39.640980 -106.912162 172 6552ft 0kts
26-Jul-23 11:08 39.641141 -106.912235 146 6552ft 2kts
26-Jul-23 11:08 39.641355 -106.912792 102 6552ft 2kts
26-Jul-23 11:10 39.641377 -106.912920 102 6552ft 0kts
26-Jul-23 11:11 39.641377 -106.912920 102 6552ft 0kts
26-Jul-23 11:12 39.641377 -106.912920 102 6552ft 0kts
26-Jul-23 11:13 39.641386 -106.912714 74 6552ft 0kts
26-Jul-23 11:13 39.641438 -106.912564 58 6552ft 5kts
26-Jul-23 11:14 39.642567 -106.907750 81 6552ft 19kts
26-Jul-23 11:16 39.643459 -106.900351 53 6552ft 0kts
26-Jul-23 11:17 39.643467 -106.900337 52 6552ft 0kts
26-Jul-23 11:17 39.643835 -106.900109 359 6552ft 10kts
26-Jul-23 11:18 39.642325 -106.919523 263 6580ft 147kts
26-Jul-23 11:19 39.612991 -106.956950 216 8294ft 156kts
26-Jul-23 11:20 39.579724 -106.996795 264 9480ft 186kts
26-Jul-23 11:21 39.587499 -107.069788 307 10871ft 223kts
26-Jul-23 11:22 39.640699 -107.109273 5 12717ft 247kts
26-Jul-23 11:23 39.709081 -107.092212 2 13972ft 252kts
26-Jul-23 11:24 39.759652 -107.143260 303 14697ft 241kts
26-Jul-23 11:25 39.799261 -107.217016 302 15018ft 262kts
26-Jul-23 11:26 39.837355 -107.289972 301 16438ft 234kts
26-Jul-23 11:27 39.873841 -107.360277 301 17120ft 235kts
26-Jul-23 11:28 39.910582 -107.431208 301 17740ft 237kts
26-Jul-23 11:29 39.947506 -107.502800 299 18296ft 239kts
26-Jul-23 11:30 39.928706 -107.578789 231 18374ft 249kts
26-Jul-23 11:31 39.880527 -107.649279 229 18371ft 272kts
26-Jul-23 11:32 39.827768 -107.724226 228 18370ft 289kts
26-Jul-23 11:33 39.772293 -107.802649 228 18366ft 299kts
26-Jul-23 11:34 39.715785 -107.882265 228 18366ft 300kts
26-Jul-23 11:35 39.659105 -107.961950 228 18365ft 301kts
26-Jul-23 11:36 39.602178 -108.041787 228 18352ft 302kts
26-Jul-23 11:37 39.545140 -108.121562 228 18310ft 302kts
26-Jul-23 11:38 39.488230 -108.200952 228 18265ft 299kts
26-Jul-23 11:39 39.432082 -108.279073 228 18237ft 295kts
26-Jul-23 11:40 39.376441 -108.356304 228 18237ft 292kts
26-Jul-23 11:41 39.321178 -108.432813 228 18237ft 290kts
26-Jul-23 11:42 39.266302 -108.508603 228 18237ft 288kts
26-Jul-23 11:43 39.211535 -108.584059 228 18237ft 287kts
26-Jul-23 11:44 39.157038 -108.658961 227 18242ft 287kts
26-Jul-23 11:45 39.101643 -108.734946 227 18239ft 294kts
26-Jul-23 11:46 39.030619 -108.771910 167 18248ft 307kts
26-Jul-23 11:47 38.950241 -108.733960 161 18404ft 308kts
26-Jul-23 11:48 38.870873 -108.692374 160 18579ft 307kts
26-Jul-23 11:49 38.790941 -108.650202 160 18595ft 312kts
26-Jul-23 11:50 38.709924 -108.607563 160 18595ft 316kts
26-Jul-23 11:51 38.628790 -108.564860 160 18595ft 318kts
26-Jul-23 11:52 38.546944 -108.521956 160 18595ft 319kts
26-Jul-23 11:53 38.464718 -108.478925 160 18594ft 319kts
26-Jul-23 11:54 38.382535 -108.436054 160 18461ft 324kts
26-Jul-23 11:55 38.295861 -108.391004 159 17425ft 348kts
26-Jul-23 11:56 38.206932 -108.344743 160 16334ft 344kts
26-Jul-23 11:57 38.120535 -108.299868 159 15219ft 322kts
26-Jul-23 11:58 38.048982 -108.254331 127 14074ft 263kts
26-Jul-23 11:59 38.017985 -108.177877 118 14003ft 227kts
26-Jul-23 12:00 37.996064 -108.107389 104 13134ft 213kts
26-Jul-23 12:01 37.980623 -108.039063 102 11819ft 188kts
26-Jul-23 12:02 37.968569 -107.978010 103 10456ft 174kts
26-Jul-23 12:03 37.956222 -107.920195 106 9105ft 169kts
26-Jul-23 12:04 37.951952 -107.896769 7 9080ft 9kts
26-Jul-23 12:05 37.953471 -107.901503 288 9080ft 19kts
26-Jul-23 12:06 37.954508 -107.902435 13 9080ft 0kts
26-Jul-23 12:07 37.954508 -107.902435 13 9080ft 0kts

Navigation Log

Ident Type
Flight plan parsing failed, navigation log unavailable